METAR Data
IDs: Format: Raw Decoded Include TAF

Data at: 0754 UTC 07 Apr 2020

KPDX 070653Z 33007KT 10SM BKN050 10/02 A3010 RMK AO2 SLP193 T01000017

KPDX 070520Z 0706/0806 33008KT P6SM SCT050 BKN070
  FM070900 32004KT P6SM SCT070 SCT250
  FM071500 31003KT P6SM SCT020 OVC035
  FM071900 34005KT P6SM SCT025 BKN250
  FM072200 35006KT P6SM BKN250